map of RHI home
RHI - Airport
Location
City:  Rhinelander, Wisconsin, United States
Name:Rhinelander-Oneida County Airport
ICAO:KRHI
IATA:RHI
FAA LID:RHI

Details
Type:Airport (Part 139 Class I)
Use:Public/Civil
Latitude:4537'51"N (45.630900)
Longitude:8928'00"W (-89.466627)
Datum:WGS 1984
Elevation:1623 ft (495 m)
Variation:3.09W (WMM2015 magnetic declination)
-0.05 annual change
Runways:2
Longest:6799 × 150 ft (2072 × 45.5 m), paved

Time
Time Zone:UTC-6 (DST-5)
Local Time:

Weather
METAR:KRHI 170053Z AUTO 33009KT 10SM FEW075 24/11 A2997 RMK AO2 SLP142 T02390106
TAF:KRHI 162320Z 1700/1724 30011G18KT P6SM SCT070
FM170200 33006KT P6SM SKC
FM171700 35009G15KT P6SM FEW050

Related Locations
Nearby:
Farthest:YAUG: 10926 mi / 17584 km
Augusta [Augusta Airport], WA, AU

Find:

   beyond  
but within

Other Information
Maps:
NOTAMs:
Links:
Sources:

  
  • flag of United States
  • flag of Wisconsin
  

Airport Diagram

Airport diagram for RHI

Airport diagram PDF

Sectional Chart

Flight Planning
at skyvector.com

Satellite Image

Google Maps Satellite view

 

Copyright © 2004-2018 Karl L. Swartz. All rights reserved.
The Great Circle Mapper name and logo are trademarks of the Great Circle Mapper.
All other trademarks mentioned herein belong to their respective owners.
Please see credits for attibutions and further copyright information.

  Follow gcmap on Facebook Follow gcmap on Twitter Follow gcmap on Google+ GCmap on LinkedIn

hCard Microformat

Geo Microformat